Terminal Aerodrome Forecast
Issued by NWS Melbourne, FL

Home | Current Version | Previous Version | Text Only | Print | Product List | Glossary On
Versions: 1 2 3 4 5 6 7 8 9 10 11 12 13 14 15 16 17 18 19 20 21 22 23 24 25
000
FTUS42 KMLB 231200 AAA
TAFMCO
TAF AMD
KMCO 231219Z 2312/2412 VRB02KT P6SM SCT006 BKN250
     FM231400 22004KT P6SM SCT020 SCT200
     FM231800 21006KT P6SM VCTS SCT040CB SCT080 BKN250
     FM240000 VRB03KT P6SM SCT100 BKN250
     FM240300 VRB02KT P6SM SCT250=

USA.gov is the U.S. government's official web portal to all federal, state and local government web resources and services.